createdAt,value
2023-03-17T00:01:44.542Z,42.43
2023-03-17T00:04:12.581Z,43.07
2023-03-17T00:06:41.171Z,42.63
2023-03-17T00:09:14.540Z,43.32
2023-03-17T00:11:41.519Z,43.00
2023-03-17T00:14:09.931Z,42.65
2023-03-17T00:16:42.253Z,42.51
2023-03-17T00:19:16.422Z,42.41
2023-03-17T00:21:45.067Z,43.03
2023-03-17T00:24:14.902Z,42.59
2023-03-17T00:26:43.151Z,42.78
2023-03-17T00:29:11.958Z,42.33
2023-03-17T00:31:40.110Z,42.71
2023-03-17T00:34:11.392Z,42.91
2023-03-17T00:36:38.523Z,42.58
2023-03-17T00:41:39.798Z,43.20
2023-03-17T00:44:06.700Z,43.20
2023-03-17T00:46:37.828Z,43.63
2023-03-17T00:51:43.748Z,43.72
2023-03-17T00:54:11.813Z,43.93
2023-03-17T00:56:41.479Z,43.91
2023-03-17T00:59:20.511Z,43.71
2023-03-17T01:01:49.100Z,43.68
2023-03-17T01:04:16.346Z,43.84
2023-03-17T01:06:43.393Z,44.47
2023-03-17T01:09:14.658Z,43.88
2023-03-17T01:11:42.044Z,44.41
2023-03-17T01:14:09.902Z,44.11
2023-03-17T01:16:36.773Z,44.31
2023-03-17T01:19:05.821Z,44.00
2023-03-17T01:21:32.793Z,44.55
2023-03-17T01:24:00.281Z,44.40
2023-03-17T01:26:27.218Z,44.03
2023-03-17T01:28:54.647Z,44.61
2023-03-17T01:31:23.400Z,44.11
2023-03-17T01:33:51.260Z,44.50
2023-03-17T01:36:20.533Z,44.65
2023-03-17T01:38:50.911Z,44.62
2023-03-17T01:41:18.184Z,44.74
2023-03-17T01:43:45.090Z,44.35
2023-03-17T01:46:27.484Z,45.04
2023-03-17T01:49:15.474Z,45.15
2023-03-17T01:51:53.829Z,44.92
2023-03-17T01:54:26.385Z,44.55
2023-03-17T01:56:58.240Z,45.25
2023-03-17T01:59:31.495Z,44.58
2023-03-17T02:02:04.850Z,45.13
2023-03-17T02:04:33.959Z,44.99
2023-03-17T02:07:04.968Z,45.40
2023-03-17T02:09:34.036Z,45.38
2023-03-17T02:12:03.015Z,45.47
2023-03-17T02:14:30.238Z,45.54
2023-03-17T02:16:57.472Z,45.02
2023-03-17T02:19:25.270Z,45.15
2023-03-17T02:21:57.978Z,45.13
2023-03-17T02:24:35.791Z,45.10
2023-03-17T02:27:08.504Z,45.67
2023-03-17T02:29:37.680Z,45.54
2023-03-17T02:32:05.763Z,45.36
2023-03-17T02:34:33.880Z,45.79
2023-03-17T02:37:02.153Z,45.91
2023-03-17T02:39:29.028Z,45.47
2023-03-17T02:41:56.154Z,45.54
2023-03-17T02:44:23.087Z,45.73
2023-03-17T02:46:49.936Z,45.68
2023-03-17T02:49:18.335Z,45.24
2023-03-17T02:51:45.850Z,45.75
2023-03-17T02:54:14.137Z,45.41
2023-03-17T02:56:41.857Z,45.58
2023-03-17T02:59:09.707Z,46.15
2023-03-17T03:01:36.814Z,46.72
2023-03-17T03:04:04.237Z,46.24
2023-03-17T03:06:31.711Z,46.12
2023-03-17T03:08:59.329Z,46.02
2023-03-17T03:11:29.170Z,46.29
2023-03-17T03:13:56.219Z,46.00
2023-03-17T03:16:23.125Z,46.31
2023-03-17T03:18:50.133Z,46.13
2023-03-17T03:21:17.267Z,46.32
2023-03-17T03:23:44.272Z,46.52
2023-03-17T03:26:12.031Z,46.29
2023-03-17T03:28:40.575Z,46.35
2023-03-17T03:31:08.080Z,46.34
2023-03-17T03:33:36.399Z,46.59
2023-03-17T03:36:03.692Z,46.53
2023-03-17T03:38:30.637Z,46.49
2023-03-17T03:40:57.700Z,46.29
2023-03-17T03:43:24.620Z,46.34
2023-03-17T03:45:54.441Z,46.38
2023-03-17T03:48:22.450Z,46.90
2023-03-17T03:50:49.700Z,46.71
2023-03-17T03:53:16.726Z,46.82
2023-03-17T03:55:43.629Z,47.28
2023-03-17T03:58:11.242Z,47.15
2023-03-17T04:00:38.296Z,47.25
2023-03-17T04:03:06.543Z,46.79
2023-03-17T04:05:34.108Z,47.09
2023-03-17T04:08:01.117Z,47.72
2023-03-17T04:10:28.315Z,47.14
2023-03-17T04:12:56.230Z,47.62
2023-03-17T04:15:23.380Z,47.69
2023-03-17T04:17:50.882Z,47.91
2023-03-17T04:20:19.500Z,47.90
2023-03-17T04:22:46.616Z,47.99
2023-03-17T04:25:15.370Z,47.66
2023-03-17T04:27:43.303Z,47.73
2023-03-17T04:30:16.706Z,47.92
2023-03-17T04:32:44.643Z,48.18
2023-03-17T04:35:14.518Z,48.08
2023-03-17T04:37:43.229Z,47.64
2023-03-17T04:40:12.896Z,47.99
2023-03-17T04:42:40.553Z,48.25
2023-03-17T04:45:11.191Z,47.99
2023-03-17T04:47:39.315Z,48.54
2023-03-17T04:50:08.784Z,48.36
2023-03-17T04:52:36.768Z,48.59
2023-03-17T04:55:08.208Z,48.67
2023-03-17T04:57:35.211Z,48.56
2023-03-17T05:00:02.124Z,48.37
2023-03-17T05:02:29.328Z,47.99
2023-03-17T05:04:56.335Z,48.45
2023-03-17T05:07:23.330Z,48.71
2023-03-17T05:09:50.210Z,48.94
2023-03-17T05:12:18.542Z,48.94
2023-03-17T05:14:45.471Z,48.67
2023-03-17T05:17:12.461Z,48.91
2023-03-17T05:19:39.544Z,48.34
2023-03-17T05:22:07.118Z,48.28
2023-03-17T05:24:34.280Z,48.36
2023-03-17T05:27:01.192Z,48.87
2023-03-17T05:29:29.972Z,48.48
2023-03-17T05:31:56.904Z,49.01
2023-03-17T05:34:23.840Z,48.55
2023-03-17T05:36:51.009Z,49.13
2023-03-17T05:39:17.923Z,48.55
2023-03-17T05:41:44.885Z,49.25
2023-03-17T05:44:11.790Z,48.73
2023-03-17T05:46:40.577Z,48.41
2023-03-17T05:49:07.800Z,49.18
2023-03-17T05:51:36.815Z,48.47
2023-03-17T05:54:04.372Z,48.63
2023-03-17T05:56:33.613Z,48.15
2023-03-17T05:59:01.584Z,48.16
2023-03-17T06:01:28.633Z,48.77
2023-03-17T06:03:57.116Z,48.25
2023-03-17T06:06:24.516Z,48.37
2023-03-17T06:08:51.576Z,48.29
2023-03-17T06:11:20.595Z,48.07
2023-03-17T06:13:48.250Z,48.58
2023-03-17T06:16:15.550Z,48.24
2023-03-17T06:18:42.655Z,47.71
2023-03-17T06:21:11.610Z,47.78
2023-03-17T06:23:38.620Z,47.83
2023-03-17T06:26:06.302Z,47.89
2023-03-17T06:28:33.211Z,47.95
2023-03-17T06:31:00.283Z,47.88
2023-03-17T06:33:28.163Z,48.28
2023-03-17T06:35:55.089Z,48.15
2023-03-17T06:38:23.310Z,48.14
2023-03-17T06:40:50.615Z,47.80
2023-03-17T06:43:19.445Z,47.93
2023-03-17T06:45:46.841Z,47.37
2023-03-17T06:48:13.901Z,47.45
2023-03-17T06:50:40.991Z,47.36
2023-03-17T06:53:08.110Z,46.91
2023-03-17T06:55:36.453Z,47.22
2023-03-17T06:58:03.480Z,46.34
2023-03-17T07:00:30.498Z,46.89
2023-03-17T07:02:57.786Z,46.83
2023-03-17T07:05:24.802Z,46.46
2023-03-17T07:07:51.754Z,45.55
2023-03-17T07:10:19.144Z,45.31
2023-03-17T07:12:47.799Z,44.42
2023-03-17T07:15:15.439Z,42.23
2023-03-17T07:17:42.621Z,41.55
2023-03-17T07:20:11.697Z,40.30
2023-03-17T07:22:38.662Z,39.24
2023-03-17T07:25:07.797Z,38.06
2023-03-17T07:27:34.680Z,37.68
2023-03-17T07:30:04.929Z,37.73
2023-03-17T07:32:32.616Z,38.00
2023-03-17T07:34:59.757Z,37.71
2023-03-17T07:37:26.659Z,37.96
2023-03-17T07:39:53.571Z,37.56
2023-03-17T07:42:20.618Z,36.91
2023-03-17T07:44:47.643Z,37.36
2023-03-17T07:47:16.211Z,37.16
2023-03-17T07:49:43.386Z,36.69
2023-03-17T07:52:11.390Z,35.66
2023-03-17T07:54:41.526Z,35.15
2023-03-17T07:57:10.917Z,34.08
2023-03-17T07:59:38.269Z,34.25
2023-03-17T08:02:05.351Z,33.82
2023-03-17T08:04:34.884Z,33.63
2023-03-17T08:07:01.849Z,32.75
2023-03-17T08:09:28.754Z,32.66
2023-03-17T08:11:56.314Z,32.11
2023-03-17T08:14:23.256Z,31.80
2023-03-17T08:16:50.253Z,31.62
2023-03-17T08:19:17.469Z,31.73
2023-03-17T08:21:45.802Z,31.22
2023-03-17T08:24:12.683Z,31.32
2023-03-17T08:26:39.653Z,30.95
2023-03-17T08:29:07.918Z,31.29
2023-03-17T08:31:35.743Z,31.09
2023-03-17T08:34:03.027Z,30.92
2023-03-17T08:36:30.629Z,30.52
2023-03-17T08:38:59.181Z,30.59
2023-03-17T08:41:28.154Z,30.05
2023-03-17T08:43:56.052Z,29.87
2023-03-17T08:46:25.992Z,30.13
2023-03-17T08:48:56.347Z,29.51
2023-03-17T08:51:26.744Z,28.93
2023-03-17T08:53:55.203Z,28.73
2023-03-17T08:56:23.553Z,27.88
2023-03-17T08:58:51.812Z,27.47
2023-03-17T09:01:21.216Z,27.46
2023-03-17T09:03:49.435Z,26.44
2023-03-17T09:06:16.459Z,26.26
2023-03-17T09:08:45.069Z,26.72
2023-03-17T09:11:16.583Z,26.83
2023-03-17T09:13:46.434Z,27.43
2023-03-17T09:16:14.718Z,27.83
2023-03-17T09:18:42.241Z,28.36
2023-03-17T09:21:11.614Z,28.56
2023-03-17T09:23:38.650Z,29.35
2023-03-17T09:26:06.203Z,30.27
2023-03-17T09:28:33.829Z,30.53
2023-03-17T09:31:06.113Z,30.15
2023-03-17T09:33:33.168Z,29.64
2023-03-17T09:36:00.182Z,28.22
2023-03-17T09:38:28.057Z,27.78
2023-03-17T09:41:09.701Z,26.66
2023-03-17T09:43:52.268Z,25.16
2023-03-17T09:46:37.509Z,24.99
2023-03-17T09:49:09.418Z,23.82
2023-03-17T09:51:36.687Z,23.03
2023-03-17T09:54:11.092Z,22.61
2023-03-17T09:56:46.070Z,22.17
2023-03-17T09:59:34.258Z,21.48
2023-03-17T10:02:03.106Z,21.39
2023-03-17T10:04:30.108Z,20.98
2023-03-17T10:07:04.478Z,20.61
2023-03-17T10:09:40.070Z,19.18
2023-03-17T10:12:18.272Z,19.72
2023-03-17T10:14:58.482Z,19.05
2023-03-17T10:17:31.976Z,18.93
2023-03-17T10:20:06.723Z,16.66
2023-03-17T10:22:41.732Z,18.09
2023-03-17T10:25:15.632Z,17.03
2023-03-17T10:27:51.561Z,17.68
2023-03-17T10:30:23.546Z,17.77
2023-03-17T10:32:57.318Z,18.56
2023-03-17T10:35:25.380Z,18.73
2023-03-17T10:38:04.423Z,18.98
2023-03-17T10:40:38.845Z,19.50
2023-03-17T10:43:11.073Z,20.04
2023-03-17T10:45:44.146Z,21.03
2023-03-17T10:48:18.905Z,21.60
2023-03-17T10:50:49.300Z,21.42
2023-03-17T10:53:29.312Z,22.11
2023-03-17T10:56:06.701Z,21.68
2023-03-17T10:58:39.603Z,21.98
2023-03-17T11:01:15.428Z,22.78
2023-03-17T11:03:44.131Z,22.41
2023-03-17T11:06:13.717Z,23.02
2023-03-17T11:08:46.997Z,23.04
2023-03-17T11:11:26.270Z,22.51
2023-03-17T11:14:02.413Z,22.48
2023-03-17T11:16:34.891Z,22.66
2023-03-17T11:19:11.467Z,22.03
2023-03-17T11:21:55.003Z,22.49
2023-03-17T11:24:30.847Z,22.70
2023-03-17T11:27:09.129Z,23.10
2023-03-17T11:30:01.774Z,22.45
2023-03-17T11:32:37.843Z,21.47
2023-03-17T11:35:34.153Z,20.84
2023-03-17T11:38:24.713Z,20.95
2023-03-17T11:41:23.996Z,20.83
2023-03-17T11:44:18.325Z,20.33
2023-03-17T11:46:56.236Z,21.06
2023-03-17T11:49:32.917Z,21.00
2023-03-17T11:52:11.115Z,21.67
2023-03-17T11:54:50.567Z,22.03
2023-03-17T11:57:27.145Z,22.23
2023-03-17T12:00:00.603Z,22.03
2023-03-17T12:02:37.387Z,22.04
2023-03-17T12:05:09.683Z,21.36
2023-03-17T12:07:44.801Z,21.30
2023-03-17T12:10:22.617Z,20.68
2023-03-17T12:12:56.363Z,20.48
2023-03-17T12:15:32.985Z,20.65
2023-03-17T12:18:10.765Z,21.22
2023-03-17T12:20:49.701Z,20.81
2023-03-17T12:23:33.446Z,21.15
2023-03-17T12:26:06.919Z,20.99
2023-03-17T12:28:40.763Z,21.24
2023-03-17T12:31:14.048Z,21.59
2023-03-17T12:33:50.010Z,21.82
2023-03-17T12:36:18.585Z,22.52
2023-03-17T12:38:56.817Z,22.25
2023-03-17T12:41:41.451Z,22.13
2023-03-17T12:44:34.271Z,20.87
2023-03-17T12:47:33.208Z,21.05
2023-03-17T12:50:53.138Z,20.99
2023-03-17T12:53:28.429Z,21.18
2023-03-17T12:56:06.579Z,21.52
2023-03-17T12:58:43.973Z,21.64
2023-03-17T13:01:29.952Z,21.98
2023-03-17T13:04:17.951Z,21.74
2023-03-17T13:06:54.945Z,22.49
2023-03-17T13:09:46.855Z,22.52
2023-03-17T13:12:57.516Z,23.14
2023-03-17T13:15:58.682Z,24.17
2023-03-17T13:18:50.387Z,24.16
2023-03-17T13:21:25.154Z,24.44
2023-03-17T13:24:39.881Z,25.01
2023-03-17T13:27:12.321Z,25.23
2023-03-17T13:29:45.987Z,25.55
2023-03-17T13:32:38.413Z,25.21
2023-03-17T13:35:22.041Z,25.30
2023-03-17T13:38:37.144Z,25.77
2023-03-17T13:41:41.542Z,26.16
2023-03-17T13:44:29.045Z,26.54
2023-03-17T13:47:15.895Z,26.09
2023-03-17T13:49:50.586Z,26.21
2023-03-17T13:52:27.440Z,26.15
2023-03-17T13:55:05.855Z,26.42
2023-03-17T13:57:37.180Z,26.76
2023-03-17T14:00:22.675Z,26.96
2023-03-17T14:02:59.807Z,27.16
2023-03-17T14:05:34.703Z,27.21
2023-03-17T14:08:04.782Z,27.09
2023-03-17T14:10:34.228Z,27.41
2023-03-17T14:13:16.232Z,27.85
2023-03-17T14:15:51.545Z,27.65
2023-03-17T14:18:22.991Z,27.82
2023-03-17T14:20:56.187Z,27.84
2023-03-17T14:23:24.153Z,28.04
2023-03-17T14:25:54.469Z,28.39
2023-03-17T14:28:27.280Z,28.67
2023-03-17T14:30:59.101Z,28.67
2023-03-17T14:33:28.159Z,28.87
2023-03-17T14:36:01.500Z,28.93
2023-03-17T14:38:31.403Z,29.38
2023-03-17T14:41:04.706Z,29.38
2023-03-17T14:43:33.333Z,29.58
2023-03-17T14:46:02.817Z,30.09
2023-03-17T14:48:34.329Z,30.46
2023-03-17T14:51:07.890Z,30.99
2023-03-17T14:53:40.025Z,31.22
2023-03-17T14:56:08.020Z,31.54
2023-03-17T14:58:41.421Z,31.32
2023-03-17T15:01:15.379Z,31.56
2023-03-17T15:03:56.322Z,31.88
2023-03-17T15:06:27.445Z,31.54
2023-03-17T15:08:57.461Z,31.57
2023-03-17T15:11:28.201Z,31.74
2023-03-17T15:14:07.108Z,31.57
2023-03-17T15:16:36.260Z,31.63
2023-03-17T15:19:08.455Z,31.28
2023-03-17T15:21:41.951Z,31.28
2023-03-17T15:24:36.212Z,31.17
2023-03-17T15:27:06.997Z,30.67
2023-03-17T15:29:34.365Z,30.95
2023-03-17T15:32:11.719Z,30.88
2023-03-17T15:34:39.025Z,30.78
2023-03-17T15:37:25.076Z,30.79
2023-03-17T15:39:56.237Z,31.14
2023-03-17T15:42:27.216Z,31.33
2023-03-17T15:44:54.744Z,31.32
2023-03-17T15:47:32.948Z,31.09
2023-03-17T15:50:13.787Z,31.20
2023-03-17T15:52:42.988Z,31.21
2023-03-17T15:55:19.664Z,31.03
2023-03-17T15:57:54.693Z,31.30
2023-03-17T16:00:26.552Z,31.50
2023-03-17T16:02:57.106Z,31.39
2023-03-17T16:05:28.048Z,31.53
2023-03-17T16:07:57.725Z,31.55
2023-03-17T16:10:27.345Z,31.83
2023-03-17T16:12:55.469Z,31.63
2023-03-17T16:15:31.282Z,31.86
2023-03-17T16:18:02.366Z,31.61
2023-03-17T16:20:37.248Z,31.77
2023-03-17T16:23:11.921Z,31.72
2023-03-17T16:25:39.206Z,31.51
2023-03-17T16:28:16.701Z,32.21
2023-03-17T16:30:46.088Z,32.16
2023-03-17T16:33:21.075Z,31.80
2023-03-17T16:35:49.228Z,32.01
2023-03-17T16:38:21.190Z,32.49
2023-03-17T16:40:52.741Z,32.34
2023-03-17T16:43:25.924Z,32.22
2023-03-17T16:45:57.596Z,32.15
2023-03-17T16:48:25.769Z,32.37
2023-03-17T16:50:53.371Z,32.78
2023-03-17T16:53:26.028Z,32.39
2023-03-17T16:55:55.321Z,32.93
2023-03-17T16:58:25.612Z,33.17
2023-03-17T17:00:57.472Z,33.08
2023-03-17T17:03:24.717Z,33.41
2023-03-17T17:05:51.793Z,33.25
2023-03-17T17:08:20.693Z,33.03
2023-03-17T17:10:47.740Z,33.65
2023-03-17T17:13:15.762Z,33.44
2023-03-17T17:15:53.212Z,33.24
2023-03-17T17:18:24.333Z,33.99
2023-03-17T17:20:53.539Z,33.83
2023-03-17T17:23:24.315Z,34.08
2023-03-17T17:25:53.131Z,34.22
2023-03-17T17:28:23.792Z,34.24
2023-03-17T17:30:52.531Z,34.44
2023-03-17T17:33:21.652Z,34.75
2023-03-17T17:36:12.710Z,34.17
2023-03-17T17:38:41.185Z,34.16
2023-03-17T17:41:11.714Z,34.79
2023-03-17T17:43:38.770Z,35.03
2023-03-17T17:46:11.395Z,34.89
2023-03-17T17:48:38.322Z,35.06
2023-03-17T17:51:06.004Z,35.26
2023-03-17T17:53:34.245Z,35.39
2023-03-17T17:56:02.712Z,35.48
2023-03-17T17:58:30.771Z,35.76
2023-03-17T18:00:58.274Z,36.00
2023-03-17T18:03:26.880Z,35.50
2023-03-17T18:05:56.205Z,35.64
2023-03-17T18:08:24.020Z,35.54
2023-03-17T18:10:52.196Z,35.83
2023-03-17T18:13:20.659Z,35.68
2023-03-17T18:15:47.711Z,36.21
2023-03-17T18:18:14.947Z,36.10
2023-03-17T18:20:42.003Z,36.37
2023-03-17T18:23:09.179Z,35.87
2023-03-17T18:25:37.207Z,36.11
2023-03-17T18:28:06.211Z,36.17
2023-03-17T18:30:35.843Z,36.28
2023-03-17T18:33:09.068Z,35.97
2023-03-17T18:35:37.473Z,36.45
2023-03-17T18:38:05.223Z,36.26
2023-03-17T18:40:32.369Z,36.04
2023-03-17T18:42:59.525Z,35.89
2023-03-17T18:45:26.990Z,36.35
2023-03-17T18:47:55.324Z,36.22
2023-03-17T18:50:23.183Z,36.10
2023-03-17T18:52:50.970Z,36.35
2023-03-17T18:55:18.308Z,36.22
2023-03-17T18:57:46.922Z,36.26
2023-03-17T19:00:17.337Z,36.45
2023-03-17T19:02:45.469Z,36.73
2023-03-17T19:05:14.301Z,36.67
2023-03-17T19:07:41.933Z,36.63
2023-03-17T19:10:12.183Z,36.54
2023-03-17T19:12:39.698Z,37.17
2023-03-17T19:15:09.514Z,36.89
2023-03-17T19:17:36.880Z,36.85
2023-03-17T19:20:05.628Z,37.02
2023-03-17T19:22:34.799Z,37.17
2023-03-17T19:25:04.087Z,37.27
2023-03-17T19:27:31.652Z,37.38
2023-03-17T19:29:58.557Z,37.49
2023-03-17T19:32:25.625Z,37.33
2023-03-17T19:34:53.128Z,37.54
2023-03-17T19:37:20.015Z,37.45
2023-03-17T19:39:48.294Z,37.80
2023-03-17T19:42:16.121Z,37.75
2023-03-17T19:44:43.165Z,37.83
2023-03-17T19:47:11.106Z,37.77
2023-03-17T19:49:38.798Z,38.07
2023-03-17T19:52:07.577Z,38.19
2023-03-17T19:54:35.083Z,38.00
2023-03-17T19:57:03.639Z,38.14
2023-03-17T19:59:31.117Z,37.96
2023-03-17T20:01:58.618Z,38.23
2023-03-17T20:04:26.094Z,38.18
2023-03-17T20:06:55.627Z,38.52
2023-03-17T20:09:24.595Z,38.52
2023-03-17T20:11:53.216Z,38.38
2023-03-17T20:14:21.464Z,38.26
2023-03-17T20:16:49.661Z,38.34
2023-03-17T20:19:17.108Z,38.55
2023-03-17T20:21:44.513Z,38.37
2023-03-17T20:24:12.818Z,38.86
2023-03-17T20:26:41.498Z,39.03
2023-03-17T20:29:08.650Z,39.30
2023-03-17T20:31:38.569Z,39.36
2023-03-17T20:34:06.162Z,39.42
2023-03-17T20:36:33.449Z,39.46
2023-03-17T20:39:00.461Z,39.49
2023-03-17T20:41:27.494Z,39.57
2023-03-17T20:43:54.383Z,39.79
2023-03-17T20:46:23.970Z,39.67
2023-03-17T20:48:58.363Z,39.67
2023-03-17T20:51:27.151Z,39.68
2023-03-17T20:53:55.089Z,39.68
2023-03-17T20:56:24.437Z,39.82
2023-03-17T20:58:52.992Z,39.97
2023-03-17T21:01:21.437Z,39.67
2023-03-17T21:03:50.067Z,39.73
2023-03-17T21:06:19.559Z,39.67
2023-03-17T21:08:46.921Z,39.81
2023-03-17T21:11:18.358Z,39.57
2023-03-17T21:13:46.436Z,39.58
2023-03-17T21:16:18.842Z,39.53
2023-03-17T21:18:45.756Z,39.45
2023-03-17T21:21:12.732Z,39.47
2023-03-17T21:23:41.554Z,39.25
2023-03-17T21:26:09.435Z,39.35
2023-03-17T21:28:41.255Z,39.35
2023-03-17T21:31:10.001Z,39.36
2023-03-17T21:33:37.723Z,39.20
2023-03-17T21:36:06.539Z,39.43
2023-03-17T21:38:33.791Z,39.38
2023-03-17T21:41:23.241Z,39.46
2023-03-17T21:43:50.448Z,39.67
2023-03-17T21:46:17.468Z,39.75
2023-03-17T21:48:44.572Z,39.59
2023-03-17T21:51:11.577Z,39.73
2023-03-17T21:53:38.675Z,39.80
2023-03-17T21:56:08.312Z,39.78
2023-03-17T21:58:35.411Z,39.95
2023-03-17T22:01:03.060Z,40.24
2023-03-17T22:03:30.242Z,40.33
2023-03-17T22:05:57.163Z,40.69
2023-03-17T22:08:25.015Z,40.68
2023-03-17T22:10:52.230Z,40.82
2023-03-17T22:13:20.426Z,40.74
2023-03-17T22:15:47.606Z,40.71
2023-03-17T22:18:14.596Z,40.72
2023-03-17T22:20:41.482Z,40.99
2023-03-17T22:23:08.359Z,40.99
2023-03-17T22:25:35.238Z,41.06
2023-03-17T22:28:02.082Z,41.06
2023-03-17T22:30:30.719Z,40.89
2023-03-17T22:32:57.829Z,41.21
2023-03-17T22:35:24.961Z,41.11
2023-03-17T22:37:51.805Z,41.02
2023-03-17T22:40:19.031Z,40.98
2023-03-17T22:42:46.669Z,40.97
2023-03-17T22:45:14.176Z,40.97
2023-03-17T22:47:42.578Z,41.14
2023-03-17T22:50:11.707Z,41.04
2023-03-17T22:52:38.945Z,41.05
2023-03-17T22:55:07.613Z,41.02
2023-03-17T22:57:34.627Z,41.27
2023-03-17T23:00:01.853Z,41.06
2023-03-17T23:02:29.483Z,41.30
2023-03-17T23:04:57.724Z,41.24
2023-03-17T23:07:24.646Z,41.19
2023-03-17T23:09:51.633Z,41.08
2023-03-17T23:12:22.866Z,41.25
2023-03-17T23:14:49.903Z,41.25
2023-03-17T23:17:16.846Z,41.10
2023-03-17T23:19:43.783Z,41.09
2023-03-17T23:22:12.474Z,41.10
2023-03-17T23:24:39.350Z,41.12
2023-03-17T23:27:06.651Z,41.18
2023-03-17T23:29:33.557Z,41.45
2023-03-17T23:32:01.088Z,41.59
2023-03-17T23:34:28.395Z,41.12
2023-03-17T23:36:55.226Z,41.32
2023-03-17T23:39:23.972Z,41.14
2023-03-17T23:41:51.127Z,41.52
2023-03-17T23:44:18.046Z,41.11
2023-03-17T23:46:45.128Z,41.19
2023-03-17T23:49:12.156Z,41.46
2023-03-17T23:51:40.688Z,41.65
2023-03-17T23:54:08.278Z,41.55
2023-03-17T23:56:36.907Z,42.02
2023-03-17T23:59:04.200Z,41.90
